Time;durP1;ratioP1;P1;durP2;ratioP2;P2;SDS_P1;SDS_P2;PMS_P1;PMS_P2;Temp;Humidity;BMP_temperature;BMP_pressure;BME280_temperature;BME280_humidity;BME280_pressure;Samples;Min_cycle;Max_cycle;Signal;HPM_P1;HPM_P2
2022/07/14 00:00:56;;;;;;;6.25;1.67;;;;;;;19.69;55.72;96412.75;2048551;28;20051;-39
2022/07/14 00:01:58;;;;;;;3.30;1.52;;;;;;;19.65;55.58;96408.66;2040283;29;20035;-39
2022/07/14 00:02:59;;;;;;;7.43;2.05;;;;;;;19.60;55.80;96407.19;2040613;28;20047;-39
2022/07/14 00:04:00;;;;;;;3.55;2.08;;;;;;;19.56;55.94;96399.66;2040778;28;20043;-38
2022/07/14 00:05:01;;;;;;;4.75;1.52;;;;;;;19.54;55.85;96405.03;2047968;28;20051;-39
2022/07/14 00:06:03;;;;;;;4.60;1.75;;;;;;;19.50;56.17;96405.38;2064140;28;20046;-39
2022/07/14 00:07:04;;;;;;;4.65;1.80;;;;;;;19.44;56.10;96405.88;2048814;28;20449;-40
2022/07/14 00:08:05;;;;;;;4.32;2.20;;;;;;;19.42;56.28;96410.41;2040387;28;20063;-39
2022/07/14 00:09:07;;;;;;;2.35;1.38;;;;;;;19.32;57.34;96410.25;2040395;28;20048;-39
2022/07/14 00:10:08;;;;;;;6.30;1.85;;;;;;;19.29;57.59;96413.13;2048019;28;20054;-40
2022/07/14 00:11:10;;;;;;;5.55;2.10;;;;;;;19.26;58.20;96416.00;2040884;29;20490;-39
2022/07/14 00:12:11;;;;;;;4.88;1.83;;;;;;;19.25;59.00;96412.53;2048015;28;20058;-40
2022/07/14 00:13:12;;;;;;;3.42;1.95;;;;;;;19.24;60.02;96407.38;2048232;28;20525;-40
2022/07/14 00:14:14;;;;;;;5.82;1.65;;;;;;;19.22;59.89;96410.13;2047893;28;20046;-38
2022/07/14 00:15:15;;;;;;;7.93;2.20;;;;;;;19.18;60.12;96413.94;2040981;28;20055;-39
2022/07/14 00:16:16;;;;;;;3.47;1.60;;;;;;;19.17;60.32;96412.25;2047988;28;20070;-41
2022/07/14 00:17:17;;;;;;;4.13;1.80;;;;;;;19.17;59.30;96414.91;2056447;28;20046;-40
2022/07/14 00:18:18;;;;;;;3.70;1.85;;;;;;;19.22;58.46;96418.03;2056579;28;20054;-39
2022/07/14 00:19:20;;;;;;;6.88;1.83;;;;;;;19.21;58.12;96421.59;2048461;29;20485;-40
2022/07/14 00:20:21;;;;;;;2.80;1.80;;;;;;;19.21;58.75;96415.50;2040726;28;20055;-40
2022/07/14 00:21:22;;;;;;;3.97;2.00;;;;;;;19.23;58.92;96418.84;2048673;28;20047;-42
2022/07/14 00:22:24;;;;;;;5.50;1.90;;;;;;;19.25;58.46;96422.22;2048345;28;20051;-40
2022/07/14 00:23:25;;;;;;;4.22;1.77;;;;;;;19.27;59.52;96430.81;2048188;28;20054;-39
2022/07/14 00:24:26;;;;;;;8.15;2.22;;;;;;;19.27;58.50;96431.69;2055864;28;20632;-39
2022/07/14 00:25:27;;;;;;;4.43;2.38;;;;;;;19.24;59.33;96434.53;2056015;28;20053;-39
2022/07/14 00:26:29;;;;;;;3.88;2.05;;;;;;;19.22;59.21;96444.34;2056346;28;20468;-39
2022/07/14 00:27:30;;;;;;;6.15;2.00;;;;;;;19.23;58.94;96442.56;2056115;28;20042;-39
2022/07/14 00:28:32;;;;;;;4.85;2.10;;;;;;;19.25;57.93;96445.91;2056308;28;20042;-37
2022/07/14 00:29:35;;;;;;;4.47;1.70;;;;;;;19.33;57.62;96446.19;2064005;28;20054;-39
2022/07/14 00:30:37;;;;;;;3.17;1.92;;;;;;;19.33;57.70;96446.19;2065213;28;20112;-41
2022/07/14 00:31:38;;;;;;;3.80;2.10;;;;;;;19.31;57.79;96442.81;2056612;28;20062;-38
2022/07/14 00:32:39;;;;;;;5.80;2.05;;;;;;;19.26;58.39;96440.53;2047766;29;20058;-41
2022/07/14 00:33:40;;;;;;;4.32;1.83;;;;;;;19.25;58.05;96445.91;2048704;28;20047;-39
2022/07/14 00:34:42;;;;;;;4.78;1.80;;;;;;;19.22;58.65;96441.72;2055524;28;20058;-40
2022/07/14 00:35:43;;;;;;;6.45;2.03;;;;;;;19.18;58.85;96449.00;2055664;28;20078;-40
2022/07/14 00:36:45;;;;;;;4.63;2.00;;;;;;;19.14;59.17;96444.91;2048393;29;20634;-39
2022/07/14 00:37:46;;;;;;;4.00;1.98;;;;;;;19.01;60.61;96446.78;2040911;28;20047;-38
2022/07/14 00:38:47;;;;;;;4.80;1.70;;;;;;;19.01;60.17;96448.59;2056345;28;20054;-38
2022/07/14 00:39:58;;;;;;;4.15;2.10;;;;;;;19.00;59.97;96450.34;2056096;28;20055;-39
2022/07/14 00:40:59;;;;;;;3.72;1.65;;;;;;;19.01;60.10;96452.06;2041805;29;20452;-41
2022/07/14 00:42:01;;;;;;;8.63;1.98;;;;;;;18.94;60.64;96448.19;2048901;28;20051;-40
2022/07/14 00:43:03;;;;;;;3.42;1.67;;;;;;;18.84;61.06;96457.69;2056338;28;20507;-38
2022/07/14 00:44:04;;;;;;;5.57;2.10;;;;;;;18.77;61.89;96453.84;2056409;28;20058;-40
2022/07/14 00:45:09;;;;;;;2.90;1.83;;;;;;;18.70;61.80;96454.25;2064122;28;20047;-39
2022/07/14 00:46:10;;;;;;;3.25;1.73;;;;;;;18.78;61.84;96440.56;2056681;28;20039;-39
2022/07/14 00:47:11;;;;;;;3.88;1.70;;;;;;;18.78;61.66;96445.81;2048694;28;20054;-40
2022/07/14 00:48:13;;;;;;;3.70;1.90;;;;;;;18.71;62.09;96449.81;2048529;28;20547;-40
2022/07/14 00:49:33;;;;;;;4.32;1.67;;;;;;;18.66;62.30;96442.28;2048451;28;20051;-39
2022/07/14 00:50:34;;;;;;;3.25;1.80;;;;;;;18.64;62.09;96444.16;2059172;28;20054;-40
2022/07/14 00:51:36;;;;;;;4.22;1.45;;;;;;;18.64;61.98;96436.28;2048440;28;20047;-40
2022/07/14 00:52:37;;;;;;;6.40;1.80;;;;;;;18.62;62.77;96432.91;2040668;29;20414;-39
2022/07/14 00:53:38;;;;;;;3.10;1.80;;;;;;;18.63;62.46;96431.13;2056578;28;20054;-39
2022/07/14 00:54:40;;;;;;;2.80;1.58;;;;;;;18.65;61.73;96431.84;2065671;28;20700;-41
2022/07/14 00:55:42;;;;;;;8.63;1.50;;;;;;;18.66;61.93;96423.88;2049511;29;20054;-40
2022/07/14 00:56:43;;;;;;;3.55;1.70;;;;;;;18.65;62.16;96422.16;2058618;28;20059;-40
2022/07/14 00:57:46;;;;;;;4.32;1.50;;;;;;;18.64;61.62;96425.75;2057501;28;20053;-39
2022/07/14 00:58:48;;;;;;;4.20;1.52;;;;;;;18.61;62.12;96422.53;2058511;28;20057;-39
2022/07/14 00:59:51;;;;;;;6.05;1.80;;;;;;;18.61;62.20;96420.72;2057818;28;20051;-40
2022/07/14 01:00:52;;;;;;;4.07;1.60;;;;;;;18.57;62.19;96424.53;2042377;28;20052;-39
2022/07/14 01:01:54;;;;;;;2.92;1.77;;;;;;;18.54;61.82;96422.13;2057676;28;20057;-38
2022/07/14 01:02:55;;;;;;;5.13;1.88;;;;;;;18.47;62.91;96429.63;2050152;28;20059;-39
2022/07/14 01:03:57;;;;;;;2.63;1.63;;;;;;;18.36;62.96;96424.28;2050194;28;20505;-39
2022/07/14 01:04:58;;;;;;;3.80;1.50;;;;;;;18.35;62.72;96430.47;2058261;28;20051;-38
2022/07/14 01:05:59;;;;;;;4.65;1.70;;;;;;;18.34;63.05;96435.88;2049628;28;20505;-41
2022/07/14 01:07:00;;;;;;;2.78;1.70;;;;;;;18.37;63.06;96435.66;2050298;28;20051;-41
2022/07/14 01:08:02;;;;;;;3.70;1.60;;;;;;;18.33;63.61;96439.44;2041322;29;20063;-40
2022/07/14 01:09:04;;;;;;;3.25;1.80;;;;;;;18.28;63.80;96434.50;2042658;28;20052;-40
2022/07/14 01:10:06;;;;;;;3.63;1.50;;;;;;;18.30;63.72;96429.97;2041723;29;20044;-41
2022/07/14 01:11:08;;;;;;;8.50;2.00;;;;;;;18.27;63.75;96425.78;2049884;28;20050;-39
2022/07/14 01:12:10;;;;;;;3.83;1.45;;;;;;;18.20;63.71;96431.56;2057523;28;20047;-40
2022/07/14 01:13:11;;;;;;;3.25;1.60;;;;;;;18.13;64.07;96425.09;2057809;28;20043;-39
2022/07/14 01:14:12;;;;;;;3.30;1.67;;;;;;;18.11;63.87;96424.34;2056812;23;20055;-48
2022/07/14 01:15:14;;;;;;;3.85;1.60;;;;;;;18.05;64.37;96426.47;2056269;28;20097;-47
2022/07/14 01:16:15;;;;;;;4.55;1.90;;;;;;;17.98;63.96;96413.84;2049954;28;20043;-47
2022/07/14 01:17:17;;;;;;;4.22;1.65;;;;;;;17.97;64.16;96420.91;2049960;28;20148;-47
2022/07/14 01:18:18;;;;;;;3.53;1.50;;;;;;;17.97;64.16;96418.28;2058043;28;20517;-45
2022/07/14 01:19:21;;;;;;;4.95;1.60;;;;;;;17.95;64.65;96416.69;2049894;28;20051;-46
2022/07/14 01:20:23;;;;;;;2.85;1.63;;;;;;;17.93;64.63;96411.53;2050017;28;20051;-43
2022/07/14 01:21:26;;;;;;;3.55;1.77;;;;;;;17.90;64.64;96408.28;2057273;28;20054;-46
2022/07/14 01:22:27;;;;;;;4.75;1.70;;;;;;;17.93;63.85;96410.72;2049355;29;20043;-47
2022/07/14 01:23:28;;;;;;;4.35;1.85;;;;;;;17.96;64.27;96406.09;2053083;28;20042;-45
2022/07/14 01:24:30;;;;;;;4.35;1.85;;;;;;;17.96;63.76;96408.72;2057448;28;20047;-47
2022/07/14 01:25:32;;;;;;;3.47;1.65;;;;;;;17.94;63.45;96400.09;2065395;28;20038;-48
2022/07/14 01:26:34;;;;;;;4.13;1.70;;;;;;;17.94;63.78;96400.09;2065570;28;20038;-47
2022/07/14 01:27:36;;;;;;;4.75;1.65;;;;;;;17.91;64.36;96408.19;2057230;28;20054;-48
2022/07/14 01:28:40;;;;;;;4.50;2.05;;;;;;;17.91;63.91;96405.56;2057669;28;20047;-46
2022/07/14 01:29:41;;;;;;;5.35;1.40;;;;;;;17.88;64.02;96408.38;2066333;28;20050;-46
2022/07/14 01:30:43;;;;;;;5.03;1.67;;;;;;;17.87;64.26;96400.63;2065414;28;20050;-45
2022/07/14 01:31:46;;;;;;;5.45;1.77;;;;;;;17.87;63.23;96406.72;2050149;28;20054;-45
2022/07/14 01:32:47;;;;;;;3.20;2.03;;;;;;;17.87;64.07;96403.25;2057304;28;20046;-48
2022/07/14 01:33:48;;;;;;;5.70;1.95;;;;;;;17.86;64.21;96407.69;2049614;28;20043;-45
2022/07/14 01:34:50;;;;;;;4.18;2.03;;;;;;;17.87;64.39;96405.88;2041503;28;20051;-47
2022/07/14 01:35:51;;;;;;;2.83;1.80;;;;;;;17.84;64.89;96407.78;2065270;28;20046;-46
2022/07/14 01:36:54;;;;;;;6.90;1.67;;;;;;;17.83;64.61;96411.34;2057367;28;20038;-46
2022/07/14 01:37:55;;;;;;;3.67;1.75;;;;;;;17.86;64.87;96407.69;2049710;28;20086;-45
2022/07/14 01:38:57;;;;;;;5.07;1.73;;;;;;;17.86;64.63;96405.06;2057442;28;20110;-46
2022/07/14 01:40:00;;;;;;;6.35;1.63;;;;;;;17.87;64.29;96406.72;2057020;28;20588;-47
2022/07/14 01:41:01;;;;;;;3.72;1.90;;;;;;;17.90;64.04;96400.41;2057892;28;20053;-46
2022/07/14 01:42:03;;;;;;;5.30;1.90;;;;;;;17.89;64.21;96404.00;2049414;28;20063;-47
2022/07/14 01:43:05;;;;;;;3.42;1.73;;;;;;;17.89;63.70;96401.38;2057718;28;20051;-46
2022/07/14 01:44:07;;;;;;;4.43;1.60;;;;;;;17.87;64.03;96401.47;2057214;28;20050;-46
2022/07/14 01:45:09;;;;;;;4.47;1.73;;;;;;;17.88;64.34;96407.56;2049458;28;20128;-48
2022/07/14 01:46:10;;;;;;;3.17;1.65;;;;;;;17.86;63.72;96410.31;2057236;28;20047;-47
2022/07/14 01:47:13;;;;;;;3.25;1.40;;;;;;;17.85;63.64;96404.22;2057368;28;20058;-47
2022/07/14 01:48:14;;;;;;;5.03;1.80;;;;;;;17.84;64.16;96405.16;2057545;28;20055;-47
2022/07/14 01:49:16;;;;;;;3.03;1.65;;;;;;;17.84;63.72;96407.78;2049640;28;20054;-46
2022/07/14 01:50:18;;;;;;;3.85;2.00;;;;;;;17.88;63.46;96412.81;2049908;28;20047;-47
2022/07/14 01:51:21;;;;;;;3.70;1.67;;;;;;;17.92;62.76;96409.88;2049996;28;20441;-46
2022/07/14 01:52:22;;;;;;;5.07;2.10;;;;;;;17.96;63.25;96411.34;2049726;28;20529;-49
2022/07/14 01:53:23;;;;;;;6.38;1.50;;;;;;;17.95;63.05;96408.81;2057321;28;20050;-45
2022/07/14 01:54:25;;;;;;;4.25;1.50;;;;;;;17.97;62.76;96412.19;2049647;28;20513;-46
2022/07/14 01:55:26;;;;;;;5.32;1.90;;;;;;;17.95;63.37;96404.41;2057159;28;20051;-47
2022/07/14 01:56:27;;;;;;;4.35;1.55;;;;;;;17.94;62.86;96413.25;2040849;29;20039;-47
2022/07/14 01:57:29;;;;;;;4.90;1.70;;;;;;;17.95;63.63;96403.56;2041899;28;20043;-47
2022/07/14 01:58:32;;;;;;;4.20;1.60;;;;;;;17.94;63.29;96407.16;2057339;28;20043;-45
2022/07/14 01:59:33;;;;;;;2.35;1.30;;;;;;;17.99;62.44;96402.38;2042192;28;20051;-47
2022/07/14 02:00:34;;;;;;;2.75;1.63;;;;;;;17.94;63.03;96409.78;2048926;28;20489;-45
2022/07/14 02:02:43;;;;;;;5.60;1.63;;;;;;;17.97;62.99;96414.81;2057580;28;20054;-44
2022/07/14 02:03:45;;;;;;;2.90;1.65;;;;;;;17.95;62.42;96411.44;2041045;29;20052;-46
2022/07/14 02:04:47;;;;;;;4.13;1.58;;;;;;;17.92;62.42;96414.28;2025848;28;20063;-45
2022/07/14 02:05:48;;;;;;;3.15;1.50;;;;;;;17.89;62.87;96417.13;2042286;28;20453;-46
2022/07/14 02:06:51;;;;;;;6.95;1.70;;;;;;;17.87;63.19;96411.97;2041257;29;20052;-47
2022/07/14 02:08:04;;;;;;;4.75;1.75;;;;;;;17.84;63.15;96418.28;2054442;28;20062;-48
2022/07/14 02:09:05;;;;;;;2.35;1.40;;;;;;;17.85;63.14;96414.72;2057342;28;20444;-46
2022/07/14 02:12:49;;;;;;;2.08;1.40;;;;;;;17.86;62.79;96415.56;2062781;28;20169;-47
2022/07/14 02:13:51;;;;;;;4.47;2.00;;;;;;;17.83;62.60;96408.72;2041754;29;20048;-45
2022/07/14 02:14:52;;;;;;;3.92;1.58;;;;;;;17.89;63.01;96409.25;2033869;28;20115;-45
2022/07/14 02:15:55;;;;;;;2.67;1.50;;;;;;;17.91;63.04;96397.69;2049378;29;20522;-46
2022/07/14 02:16:56;;;;;;;2.40;1.52;;;;;;;17.90;62.46;96397.78;2049240;28;20047;-46
2022/07/14 02:17:57;;;;;;;2.78;1.70;;;;;;;17.89;62.57;96398.75;2041335;29;20056;-45
2022/07/14 02:18:59;;;;;;;4.57;1.50;;;;;;;17.88;62.32;96405.75;2033474;29;20071;-45
2022/07/14 02:20:01;;;;;;;3.35;1.60;;;;;;;17.82;63.09;96399.16;2034300;28;20051;-46
2022/07/14 02:21:03;;;;;;;2.53;1.75;;;;;;;17.78;62.53;96404.72;2041518;28;20437;-45
2022/07/14 02:22:04;;;;;;;2.22;1.63;;;;;;;17.84;62.59;96409.56;2033268;29;20530;-45
2022/07/14 02:23:05;;;;;;;5.18;1.67;;;;;;;17.79;62.51;96409.03;2033624;29;20040;-44
2022/07/14 02:24:08;;;;;;;2.42;1.50;;;;;;;17.76;62.25;96409.22;2040675;29;20556;-46
2022/07/14 02:25:11;;;;;;;2.67;1.58;;;;;;;17.72;62.58;96403.34;2049350;28;20523;-45
2022/07/14 02:26:13;;;;;;;6.45;1.75;;;;;;;17.69;62.86;96403.53;2041615;29;20063;-45
2022/07/14 02:27:14;;;;;;;5.90;1.67;;;;;;;17.71;62.73;96406.06;2041480;28;20433;-48
2022/07/14 02:28:16;;;;;;;4.47;1.80;;;;;;;17.74;62.68;96405.88;2065121;28;20050;-46
2022/07/14 02:29:17;;;;;;;5.03;2.13;;;;;;;17.75;62.84;96403.13;2065769;28;20061;-46
2022/07/14 02:30:19;;;;;;;6.40;2.00;;;;;;;17.72;62.51;96403.34;2056803;28;20046;-47
2022/07/14 02:31:20;;;;;;;2.70;1.63;;;;;;;17.73;63.11;96402.41;2049091;29;20046;-44
2022/07/14 02:32:21;;;;;;;3.17;1.73;;;;;;;17.71;63.42;96396.41;2048466;28;20055;-44
2022/07/14 02:33:22;;;;;;;2.72;1.60;;;;;;;17.70;63.39;96399.16;2049067;28;20051;-47
2022/07/14 02:34:23;;;;;;;4.10;1.73;;;;;;;17.66;63.45;96393.25;2048987;28;20039;-46
2022/07/14 02:35:27;;;;;;;3.17;1.40;;;;;;;17.68;63.59;96395.78;2057786;28;20496;-47
2022/07/14 02:36:28;;;;;;;3.47;1.70;;;;;;;17.68;63.21;96399.25;2057424;28;20042;-45
2022/07/14 02:37:29;;;;;;;2.67;1.77;;;;;;;17.67;63.46;96399.34;2048973;28;20430;-45
2022/07/14 02:38:31;;;;;;;6.95;1.95;;;;;;;17.68;63.15;96394.00;2049090;29;20051;-47
2022/07/14 02:39:32;;;;;;;4.65;1.55;;;;;;;17.65;63.20;96394.22;2056882;28;20054;-45
2022/07/14 02:40:33;;;;;;;2.67;1.60;;;;;;;17.63;63.44;96403.97;2065006;28;20042;-46
2022/07/14 02:41:34;;;;;;;4.00;1.65;;;;;;;17.63;63.72;96398.72;2057699;28;20049;-46
2022/07/14 02:42:36;;;;;;;2.50;1.58;;;;;;;17.65;63.71;96407.34;2033395;29;20044;-47
2022/07/14 02:43:37;;;;;;;2.78;1.45;;;;;;;17.64;63.51;96392.50;2033342;28;20051;-45
2022/07/14 02:44:40;;;;;;;2.97;1.67;;;;;;;17.66;63.76;96393.25;2056753;28;20097;-46
2022/07/14 02:45:41;;;;;;;5.07;1.70;;;;;;;17.67;63.17;96394.97;2057887;28;20058;-47
2022/07/14 02:46:43;;;;;;;3.78;1.45;;;;;;;17.69;63.58;96392.19;2049490;28;20586;-48
2022/07/14 02:47:44;;;;;;;2.63;1.70;;;;;;;17.67;63.83;96394.97;2049035;28;20058;-45
2022/07/14 02:48:46;;;;;;;5.03;1.70;;;;;;;17.65;63.67;96396.84;2065056;28;20046;-47
2022/07/14 02:49:47;;;;;;;2.45;1.50;;;;;;;17.66;63.77;96392.41;2048475;29;20529;-48
2022/07/14 02:50:48;;;;;;;4.90;1.60;;;;;;;17.65;63.35;96404.72;2033526;29;20051;-46
2022/07/14 02:51:50;;;;;;;1.95;1.50;;;;;;;17.64;64.05;96401.25;2048678;28;20047;-47
2022/07/14 02:52:52;;;;;;;4.05;1.80;;;;;;;17.65;63.68;96399.47;2056760;28;20051;-45
2022/07/14 02:53:54;;;;;;;1.50;1.38;;;;;;;17.66;63.56;96400.31;2041321;28;20051;-46
2022/07/14 02:54:55;;;;;;;5.50;1.63;;;;;;;17.62;62.84;96400.50;2057007;28;20429;-44
2022/07/14 02:55:59;;;;;;;5.00;1.50;;;;;;;17.62;63.29;96400.50;2049305;28;20466;-45
2022/07/14 02:57:00;;;;;;;4.55;1.30;;;;;;;17.64;62.82;96410.91;2041349;29;20062;-45
2022/07/14 02:58:01;;;;;;;3.58;1.60;;;;;;;17.64;62.80;96397.75;2049082;28;20059;-49
2022/07/14 02:59:06;;;;;;;4.43;1.90;;;;;;;17.65;63.22;96407.34;2049431;28;20058;-47
2022/07/14 03:00:09;;;;;;;4.45;1.67;;;;;;;17.63;62.76;96412.69;2049210;28;20058;-46
2022/07/14 03:01:11;;;;;;;4.28;1.70;;;;;;;17.63;62.99;96403.97;2040846;29;20059;-46
2022/07/14 03:02:12;;;;;;;3.90;1.80;;;;;;;17.62;62.71;96407.56;2040877;28;20058;-45
2022/07/14 03:03:14;;;;;;;2.40;1.65;;;;;;;17.59;62.75;96399.91;2048959;28;20058;-47
2022/07/14 03:04:15;;;;;;;2.65;1.42;;;;;;;17.57;62.74;96401.78;2056909;28;20517;-44
2022/07/14 03:05:16;;;;;;;3.33;1.60;;;;;;;17.54;63.44;96408.09;2048829;28;20058;-46
2022/07/14 03:06:18;;;;;;;4.20;1.48;;;;;;;17.56;62.39;96402.72;2042187;29;20051;-46
2022/07/14 03:07:23;;;;;;;2.45;1.38;;;;;;;17.52;63.44;96403.88;2057104;28;20034;-45
2022/07/14 03:08:25;;;;;;;4.00;1.77;;;;;;;17.54;62.43;96399.38;2049101;28;20038;-42
2022/07/14 03:09:26;;;;;;;2.63;1.55;;;;;;;17.48;63.38;96395.38;2056548;28;20131;-48
2022/07/14 03:10:27;;;;;;;4.10;1.70;;;;;;;17.47;63.19;96398.09;2064489;28;20046;-46
2022/07/14 03:11:29;;;;;;;6.13;1.50;;;;;;;17.45;63.29;96390.31;2041087;29;20044;-47
2022/07/14 03:12:30;;;;;;;3.63;1.63;;;;;;;17.41;63.28;96394.94;2040224;29;20055;-48
2022/07/14 03:13:31;;;;;;;5.28;1.60;;;;;;;17.36;63.81;96401.47;2040958;29;20528;-46
2022/07/14 03:14:32;;;;;;;4.50;2.00;;;;;;;17.30;62.90;96389.59;2064145;28;20444;-47
2022/07/14 03:15:34;;;;;;;4.82;1.60;;;;;;;17.27;63.44;96392.44;2064251;28;20043;-47
2022/07/14 03:16:35;;;;;;;4.72;1.55;;;;;;;17.27;63.13;96391.56;2055649;28;20039;-46
2022/07/14 03:17:42;;;;;;;4.65;1.73;;;;;;;17.24;63.75;96387.41;2057378;28;20571;-46
2022/07/14 03:18:44;;;;;;;5.00;1.80;;;;;;;17.21;63.33;96390.19;2064383;28;20054;-44
2022/07/14 03:19:46;;;;;;;2.20;1.58;;;;;;;17.18;63.62;96382.53;2064899;28;20050;-45
2022/07/14 03:20:47;;;;;;;3.72;1.63;;;;;;;17.14;63.90;96387.16;2048734;29;20058;-45
2022/07/14 03:21:49;;;;;;;5.35;1.65;;;;;;;17.13;63.26;96385.50;2049005;28;20051;-47
2022/07/14 03:22:51;;;;;;;2.72;1.67;;;;;;;17.09;63.36;96378.75;2048987;28;20050;-47
2022/07/14 03:23:57;;;;;;;2.88;1.40;;;;;;;17.06;63.89;96378.97;2057091;28;20054;-47
2022/07/14 03:25:02;;;;;;;3.75;1.50;;;;;;;17.08;63.49;96376.22;2056210;28;20532;-42
2022/07/14 03:26:04;;;;;;;6.35;1.70;;;;;;;17.10;63.91;96374.34;2041984;28;20058;-46
2022/07/14 03:27:05;;;;;;;4.78;1.40;;;;;;;17.13;63.90;96376.75;2049432;28;20046;-44
2022/07/14 03:28:06;;;;;;;5.97;1.40;;;;;;;17.13;63.33;96372.38;2048520;29;20109;-46
2022/07/14 03:29:12;;;;;;;2.42;1.60;;;;;;;17.13;63.05;96375.00;2049526;28;20055;-46
2022/07/14 03:30:13;;;;;;;5.30;1.50;;;;;;;17.11;63.61;96376.03;2057011;28;20628;-48
2022/07/14 03:31:15;;;;;;;3.30;1.55;;;;;;;17.08;63.03;96377.09;2056636;28;20062;-48
2022/07/14 03:32:16;;;;;;;2.30;1.40;;;;;;;17.06;63.22;96371.09;2056013;28;20058;-45
2022/07/14 03:33:18;;;;;;;2.80;1.50;;;;;;;17.02;63.91;96372.22;2064481;28;20042;-45
2022/07/14 03:34:19;;;;;;;6.72;1.67;;;;;;;16.99;63.62;96377.69;2063844;28;20046;-48
2022/07/14 03:35:22;;;;;;;5.38;1.52;;;;;;;16.96;63.91;96376.09;2064975;28;20034;-45
2022/07/14 03:36:24;;;;;;;2.47;1.40;;;;;;;16.89;64.26;96377.47;2048978;28;20058;-43
2022/07/14 03:37:25;;;;;;;2.00;1.40;;;;;;;16.87;65.29;96383.75;2048491;28;20524;-48
2022/07/14 03:38:31;;;;;;;3.33;1.60;;;;;;;16.84;67.05;96387.44;2057163;28;20051;-46
2022/07/14 03:39:34;;;;;;;6.93;2.03;;;;;;;16.86;67.49;96393.38;2056850;28;20050;-45
2022/07/14 03:40:35;;;;;;;2.70;1.50;;;;;;;16.85;66.98;96404.00;2057236;28;20460;-48
2022/07/14 03:41:37;;;;;;;3.70;1.50;;;;;;;16.84;66.34;96405.78;2064602;28;20057;-47
2022/07/14 03:42:39;;;;;;;5.72;1.70;;;;;;;16.96;64.77;96412.00;2064267;28;20559;-49
2022/07/14 03:43:41;;;;;;;8.43;1.77;;;;;;;16.96;64.57;96409.38;2056903;28;20070;-47
2022/07/14 03:44:45;;;;;;;7.00;2.40;;;;;;;17.01;64.35;96406.47;2048884;28;20090;-48
2022/07/14 03:45:46;;;;;;;3.22;1.60;;;;;;;17.09;63.13;96410.25;2056656;28;20139;-46
2022/07/14 03:46:49;;;;;;;8.15;1.77;;;;;;;17.16;62.92;96414.16;2056644;28;20062;-46
2022/07/14 03:47:54;;;;;;;6.72;1.52;;;;;;;17.18;62.60;96408.78;2057015;28;20447;-47
2022/07/14 03:48:55;;;;;;;7.82;1.73;;;;;;;17.17;62.36;96413.19;2055849;28;20065;-45
2022/07/14 03:49:57;;;;;;;3.65;1.45;;;;;;;17.18;62.34;96406.16;2049044;28;20066;-47
2022/07/14 03:50:58;;;;;;;5.60;1.88;;;;;;;17.22;62.39;96415.53;2056402;28;20528;-47
2022/07/14 03:52:00;;;;;;;5.13;1.58;;;;;;;17.22;62.94;96406.81;2056931;28;20047;-46
2022/07/14 03:53:03;;;;;;;6.13;1.70;;;;;;;17.14;62.68;96405.53;2041267;28;20725;-48
2022/07/14 03:54:05;;;;;;;5.00;1.88;;;;;;;17.15;62.12;96414.25;2049364;28;20047;-45
2022/07/14 03:55:07;;;;;;;2.80;1.50;;;;;;;17.11;62.46;96413.63;2064610;28;20061;-48
2022/07/14 03:56:09;;;;;;;4.40;1.50;;;;;;;17.09;62.80;96407.63;2056624;28;20050;-47
2022/07/14 03:57:17;;;;;;;4.47;1.50;;;;;;;17.06;63.52;96401.75;2058672;28;20050;-46
2022/07/14 03:58:18;;;;;;;4.80;1.50;;;;;;;17.03;63.69;96402.78;2064338;28;20284;-48
2022/07/14 03:59:20;;;;;;;6.10;1.73;;;;;;;16.94;63.40;96401.59;2048801;28;20062;-46
2022/07/14 04:00:21;;;;;;;4.45;1.90;;;;;;;16.90;63.11;96410.63;2040720;28;20054;-47
2022/07/14 04:01:24;;;;;;;5.45;1.95;;;;;;;16.87;63.66;96405.59;2040924;28;20058;-45
2022/07/14 04:02:28;;;;;;;4.40;1.63;;;;;;;16.84;64.37;96405.78;2041293;29;20052;-48
2022/07/14 04:03:30;;;;;;;2.75;1.60;;;;;;;16.83;63.78;96403.25;2033253;29;20387;-46
2022/07/14 04:04:32;;;;;;;2.28;1.58;;;;;;;16.81;63.38;96405.97;2040711;28;20048;-45
2022/07/14 04:05:33;;;;;;;2.55;1.48;;;;;;;16.80;64.54;96408.72;2048438;28;20094;-46
2022/07/14 04:06:39;;;;;;;4.25;1.55;;;;;;;16.76;63.83;96419.38;2049266;28;20054;-48
2022/07/14 04:07:40;;;;;;;5.40;2.38;;;;;;;16.71;64.71;96410.13;2048868;28;20055;-46
2022/07/14 04:08:44;;;;;;;6.43;2.00;;;;;;;16.68;65.11;96418.16;2041233;28;20529;-47
2022/07/14 04:09:46;;;;;;;3.15;1.50;;;;;;;16.65;64.69;96416.59;2056420;28;20533;-47
2022/07/14 04:10:49;;;;;;;3.78;1.50;;;;;;;16.62;65.47;96411.53;2056306;28;20058;-46
2022/07/14 04:11:50;;;;;;;5.00;2.05;;;;;;;16.63;65.55;96412.41;2048199;28;20043;-46
2022/07/14 04:12:52;;;;;;;2.97;1.70;;;;;;;16.62;65.87;96408.09;2040524;28;20047;-47
2022/07/14 04:13:54;;;;;;;2.20;1.50;;;;;;;16.61;66.42;96412.50;2057012;28;20055;-47
2022/07/14 04:14:57;;;;;;;4.07;1.80;;;;;;;16.60;66.87;96412.56;2064132;28;20058;-46
2022/07/14 04:15:58;;;;;;;2.92;1.50;;;;;;;16.60;66.72;96416.06;2064529;28;20131;-47
2022/07/14 04:17:00;;;;;;;5.07;1.60;;;;;;;16.61;66.66;96414.28;2048766;28;20382;-47
2022/07/14 04:18:01;;;;;;;3.67;1.90;;;;;;;16.67;66.19;96419.13;2056280;28;20058;-48
2022/07/14 04:19:03;;;;;;;4.55;1.83;;;;;;;16.68;65.93;96421.66;2064405;28;20061;-44
2022/07/14 04:20:05;;;;;;;2.72;1.70;;;;;;;16.71;67.22;96423.22;2056083;28;20047;-45
2022/07/14 04:21:08;;;;;;;5.10;1.75;;;;;;;16.72;66.75;96420.50;2064648;28;20050;-47
2022/07/14 04:22:10;;;;;;;5.82;1.80;;;;;;;16.78;66.42;96415.81;2063344;28;20061;-45
2022/07/14 04:23:12;;;;;;;3.35;1.60;;;;;;;16.86;65.83;96408.28;2064238;28;20062;-43
2022/07/14 04:24:13;;;;;;;4.20;2.00;;;;;;;16.92;65.40;96414.00;2056203;28;20669;-48
2022/07/14 04:25:17;;;;;;;3.20;1.50;;;;;;;17.02;65.67;96410.75;2056589;28;20051;-47
2022/07/14 04:26:19;;;;;;;4.65;1.80;;;;;;;17.06;65.03;96405.19;2056340;28;20432;-47
2022/07/14 04:27:20;;;;;;;4.30;1.67;;;;;;;17.13;64.41;96406.47;2056418;28;20039;-45
2022/07/14 04:28:22;;;;;;;3.92;1.70;;;;;;;17.22;63.95;96407.66;2063847;28;20051;-45
2022/07/14 04:29:24;;;;;;;2.83;1.65;;;;;;;17.38;63.25;96399.56;2056248;28;20039;-46
2022/07/14 04:30:27;;;;;;;3.33;1.63;;;;;;;17.48;63.11;96411.13;2048489;28;20043;-45
2022/07/14 04:31:30;;;;;;;2.42;1.30;;;;;;;17.52;63.65;96404.72;2056989;28;20543;-46
2022/07/14 04:32:31;;;;;;;3.33;1.77;;;;;;;17.56;63.30;96405.34;2064036;28;20038;-47
2022/07/14 04:33:33;;;;;;;4.90;1.77;;;;;;;17.64;62.67;96405.66;2055667;28;20059;-46
2022/07/14 04:34:36;;;;;;;3.33;1.90;;;;;;;17.69;62.17;96402.72;2056738;28;20114;-47
2022/07/14 04:35:38;;;;;;;4.07;1.58;;;;;;;17.73;61.92;96402.41;2056104;28;20247;-45
2022/07/14 04:36:39;;;;;;;3.25;1.73;;;;;;;17.76;62.64;96417.09;2048891;28;20050;-46
2022/07/14 04:37:44;;;;;;;3.45;1.50;;;;;;;17.77;62.23;96413.53;2056917;28;20401;-47
2022/07/14 04:38:56;;;;;;;8.27;2.00;;;;;;;17.81;62.20;96417.66;2065024;28;20073;-47
2022/07/14 04:39:58;;;;;;;5.25;1.70;;;;;;;17.83;62.36;96414.00;2048395;29;20050;-45
2022/07/14 04:41:00;;;;;;;2.90;1.55;;;;;;;17.87;62.22;96419.03;2048327;28;20046;-46
2022/07/14 04:42:03;;;;;;;3.10;1.60;;;;;;;17.92;61.69;96419.53;2048372;28;20648;-45
2022/07/14 04:43:04;;;;;;;3.25;1.70;;;;;;;17.97;61.89;96415.66;2048397;28;20047;-47
2022/07/14 04:44:07;;;;;;;3.30;1.67;;;;;;;18.02;60.85;96410.06;2041023;28;20051;-46
2022/07/14 04:45:08;;;;;;;6.07;1.88;;;;;;;18.05;60.99;96420.38;2040562;28;20674;-45
2022/07/14 04:46:11;;;;;;;4.30;1.63;;;;;;;18.07;61.65;96413.22;2056481;28;20051;-45
2022/07/14 04:47:18;;;;;;;2.95;1.73;;;;;;;18.09;61.42;96416.56;2049188;28;20043;-45
2022/07/14 04:48:19;;;;;;;3.45;1.73;;;;;;;18.12;61.23;96413.72;2041095;28;20415;-47
2022/07/14 04:53:07;;;;;;;3.38;1.80;;;;;;;18.28;60.86;96410.84;2064198;28;20046;-47
2022/07/14 04:54:29;;;;;;;5.40;1.73;;;;;;;18.35;59.75;96400.72;2064084;28;20054;-45
2022/07/14 04:55:44;;;;;;;2.45;1.50;;;;;;;18.46;60.47;96400.78;2064427;28;20146;-46
2022/07/14 04:56:53;;;;;;;4.90;1.80;;;;;;;18.51;59.72;96396.88;2064014;28;20058;-47
2022/07/14 04:57:54;;;;;;;4.97;1.85;;;;;;;18.56;58.57;96396.56;2048659;28;20054;-45
2022/07/14 04:58:56;;;;;;;4.43;1.90;;;;;;;18.59;58.82;96400.75;2047959;28;20062;-45
2022/07/14 04:59:57;;;;;;;7.10;1.70;;;;;;;18.62;59.10;96398.72;2048062;28;20453;-48
2022/07/14 05:00:59;;;;;;;5.57;1.70;;;;;;;18.68;59.16;96393.03;2055881;28;20050;-45